sensor_id;sensor_type;location;lat;lon;timestamp;P1;durP1;ratioP1;P2;durP2;ratioP2
13981;SDS011;7065;50.880;5.502;2022-09-09T00:03:43;2.47;;;1.02;;
13981;SDS011;7065;50.880;5.502;2022-09-09T00:06:30;3.50;;;1.33;;
13981;SDS011;7065;50.880;5.502;2022-09-09T00:17:09;2.67;;;0.90;;
13981;SDS011;7065;50.880;5.502;2022-09-09T00:22:25;1.65;;;0.95;;
13981;SDS011;7065;50.880;5.502;2022-09-09T00:24:55;1.52;;;1.05;;
13981;SDS011;7065;50.880;5.502;2022-09-09T00:27:40;3.22;;;1.40;;
13981;SDS011;7065;50.880;5.502;2022-09-09T00:32:36;2.85;;;0.95;;
13981;SDS011;7065;50.880;5.502;2022-09-09T00:35:04;3.03;;;1.02;;
13981;SDS011;7065;50.880;5.502;2022-09-09T00:37:48;2.83;;;1.20;;
13981;SDS011;7065;50.880;5.502;2022-09-09T00:40:27;3.97;;;1.30;;
13981;SDS011;7065;50.880;5.502;2022-09-09T00:43:21;2.60;;;1.25;;
13981;SDS011;7065;50.880;5.502;2022-09-09T00:51:34;6.25;;;1.60;;
13981;SDS011;7065;50.880;5.502;2022-09-09T00:57:31;4.65;;;1.70;;
13981;SDS011;7065;50.880;5.502;2022-09-09T01:05:49;4.78;;;1.90;;
13981;SDS011;7065;50.880;5.502;2022-09-09T01:11:22;5.32;;;2.63;;
13981;SDS011;7065;50.880;5.502;2022-09-09T01:13:54;7.07;;;2.17;;
13981;SDS011;7065;50.880;5.502;2022-09-09T01:16:28;6.88;;;2.35;;
13981;SDS011;7065;50.880;5.502;2022-09-09T01:18:56;8.02;;;2.55;;
13981;SDS011;7065;50.880;5.502;2022-09-09T01:21:30;5.10;;;1.98;;
13981;SDS011;7065;50.880;5.502;2022-09-09T01:27:05;4.32;;;1.83;;
13981;SDS011;7065;50.880;5.502;2022-09-09T01:29:31;9.20;;;2.97;;
13981;SDS011;7065;50.880;5.502;2022-09-09T01:31:59;6.60;;;2.20;;
13981;SDS011;7065;50.880;5.502;2022-09-09T01:34:29;9.02;;;2.13;;
13981;SDS011;7065;50.880;5.502;2022-09-09T01:37:02;4.82;;;2.33;;
13981;SDS011;7065;50.880;5.502;2022-09-09T01:39:31;4.15;;;2.17;;
13981;SDS011;7065;50.880;5.502;2022-09-09T01:41:58;6.03;;;2.78;;
13981;SDS011;7065;50.880;5.502;2022-09-09T01:44:24;6.43;;;2.28;;
13981;SDS011;7065;50.880;5.502;2022-09-09T01:46:52;4.82;;;2.05;;
13981;SDS011;7065;50.880;5.502;2022-09-09T01:49:18;6.85;;;2.65;;
13981;SDS011;7065;50.880;5.502;2022-09-09T01:51:44;4.82;;;2.30;;
13981;SDS011;7065;50.880;5.502;2022-09-09T01:54:14;7.60;;;2.45;;
13981;SDS011;7065;50.880;5.502;2022-09-09T01:56:42;9.10;;;2.90;;
13981;SDS011;7065;50.880;5.502;2022-09-09T02:04:52;9.15;;;3.60;;
13981;SDS011;7065;50.880;5.502;2022-09-09T02:09:57;4.38;;;2.78;;
13981;SDS011;7065;50.880;5.502;2022-09-09T02:12:29;8.93;;;3.03;;
13981;SDS011;7065;50.880;5.502;2022-09-09T02:14:58;9.20;;;3.25;;
13981;SDS011;7065;50.880;5.502;2022-09-09T02:17:30;7.70;;;2.75;;
13981;SDS011;7065;50.880;5.502;2022-09-09T02:20:06;5.90;;;3.28;;
13981;SDS011;7065;50.880;5.502;2022-09-09T02:22:37;6.05;;;2.83;;
13981;SDS011;7065;50.880;5.502;2022-09-09T02:25:07;6.82;;;2.92;;
13981;SDS011;7065;50.880;5.502;2022-09-09T02:27:35;4.78;;;2.47;;
13981;SDS011;7065;50.880;5.502;2022-09-09T02:30:01;7.07;;;2.70;;
13981;SDS011;7065;50.880;5.502;2022-09-09T02:32:29;7.05;;;3.15;;
13981;SDS011;7065;50.880;5.502;2022-09-09T02:35:32;5.70;;;2.42;;
13981;SDS011;7065;50.880;5.502;2022-09-09T02:37:55;7.55;;;2.70;;
13981;SDS011;7065;50.880;5.502;2022-09-09T02:40:24;8.05;;;3.00;;
13981;SDS011;7065;50.880;5.502;2022-09-09T02:42:50;8.63;;;3.03;;
13981;SDS011;7065;50.880;5.502;2022-09-09T02:45:17;6.72;;;3.15;;
13981;SDS011;7065;50.880;5.502;2022-09-09T02:50:33;8.13;;;3.05;;
13981;SDS011;7065;50.880;5.502;2022-09-09T02:56:08;7.60;;;2.85;;
13981;SDS011;7065;50.880;5.502;2022-09-09T02:58:40;5.38;;;2.65;;
13981;SDS011;7065;50.880;5.502;2022-09-09T03:01:06;7.70;;;2.65;;
13981;SDS011;7065;50.880;5.502;2022-09-09T03:03:32;4.40;;;2.33;;
13981;SDS011;7065;50.880;5.502;2022-09-09T03:05:58;7.18;;;2.22;;
13981;SDS011;7065;50.880;5.502;2022-09-09T03:08:24;9.32;;;2.78;;
13981;SDS011;7065;50.880;5.502;2022-09-09T03:10:53;8.27;;;2.50;;
13981;SDS011;7065;50.880;5.502;2022-09-09T03:13:20;6.90;;;2.78;;
13981;SDS011;7065;50.880;5.502;2022-09-09T03:15:45;7.75;;;2.90;;
13981;SDS011;7065;50.880;5.502;2022-09-09T03:18:13;7.63;;;2.90;;
13981;SDS011;7065;50.880;5.502;2022-09-09T03:20:39;8.00;;;3.33;;
13981;SDS011;7065;50.880;5.502;2022-09-09T03:23:06;8.25;;;3.10;;
13981;SDS011;7065;50.880;5.502;2022-09-09T03:25:33;8.50;;;3.53;;
13981;SDS011;7065;50.880;5.502;2022-09-09T03:27:58;9.73;;;3.75;;
13981;SDS011;7065;50.880;5.502;2022-09-09T03:30:26;7.90;;;3.70;;
13981;SDS011;7065;50.880;5.502;2022-09-09T03:32:52;10.82;;;3.90;;
13981;SDS011;7065;50.880;5.502;2022-09-09T03:35:18;11.68;;;3.72;;
13981;SDS011;7065;50.880;5.502;2022-09-09T03:37:45;10.65;;;3.75;;
13981;SDS011;7065;50.880;5.502;2022-09-09T03:40:11;10.90;;;3.08;;
13981;SDS011;7065;50.880;5.502;2022-09-09T03:42:37;11.80;;;3.50;;
13981;SDS011;7065;50.880;5.502;2022-09-09T03:45:04;11.18;;;3.78;;
13981;SDS011;7065;50.880;5.502;2022-09-09T03:47:32;11.23;;;4.47;;
13981;SDS011;7065;50.880;5.502;2022-09-09T03:49:58;10.35;;;4.32;;
13981;SDS011;7065;50.880;5.502;2022-09-09T03:52:24;12.75;;;4.47;;
13981;SDS011;7065;50.880;5.502;2022-09-09T03:54:51;9.95;;;4.20;;
13981;SDS011;7065;50.880;5.502;2022-09-09T03:57:17;11.30;;;4.80;;
13981;SDS011;7065;50.880;5.502;2022-09-09T03:59:44;11.10;;;4.38;;
13981;SDS011;7065;50.880;5.502;2022-09-09T04:02:10;11.48;;;4.90;;
13981;SDS011;7065;50.880;5.502;2022-09-09T04:04:36;9.13;;;4.70;;
13981;SDS011;7065;50.880;5.502;2022-09-09T04:07:02;11.65;;;4.97;;
13981;SDS011;7065;50.880;5.502;2022-09-09T04:09:28;11.85;;;4.47;;
13981;SDS011;7065;50.880;5.502;2022-09-09T04:11:54;8.15;;;3.67;;
13981;SDS011;7065;50.880;5.502;2022-09-09T04:14:20;12.18;;;3.78;;
13981;SDS011;7065;50.880;5.502;2022-09-09T04:16:46;9.02;;;4.10;;
13981;SDS011;7065;50.880;5.502;2022-09-09T04:19:12;8.95;;;3.55;;
13981;SDS011;7065;50.880;5.502;2022-09-09T04:21:39;10.77;;;4.60;;
13981;SDS011;7065;50.880;5.502;2022-09-09T04:24:07;13.50;;;5.15;;
13981;SDS011;7065;50.880;5.502;2022-09-09T04:26:33;14.05;;;6.13;;
13981;SDS011;7065;50.880;5.502;2022-09-09T04:29:01;11.65;;;5.88;;
13981;SDS011;7065;50.880;5.502;2022-09-09T04:31:27;13.45;;;7.15;;
13981;SDS011;7065;50.880;5.502;2022-09-09T04:33:53;12.70;;;6.47;;
13981;SDS011;7065;50.880;5.502;2022-09-09T04:36:19;11.23;;;5.93;;
13981;SDS011;7065;50.880;5.502;2022-09-09T04:38:45;11.05;;;5.30;;
13981;SDS011;7065;50.880;5.502;2022-09-09T04:41:11;14.93;;;5.70;;
13981;SDS011;7065;50.880;5.502;2022-09-09T04:43:38;12.00;;;4.78;;
13981;SDS011;7065;50.880;5.502;2022-09-09T04:46:04;10.45;;;5.20;;
13981;SDS011;7065;50.880;5.502;2022-09-09T04:48:30;6.68;;;3.40;;
13981;SDS011;7065;50.880;5.502;2022-09-09T04:51:00;10.85;;;3.65;;
13981;SDS011;7065;50.880;5.502;2022-09-09T04:53:29;10.82;;;3.42;;
13981;SDS011;7065;50.880;5.502;2022-09-09T04:56:05;7.03;;;3.35;;
13981;SDS011;7065;50.880;5.502;2022-09-09T04:58:39;6.25;;;2.63;;
13981;SDS011;7065;50.880;5.502;2022-09-09T05:01:08;5.75;;;2.70;;
13981;SDS011;7065;50.880;5.502;2022-09-09T05:03:34;5.97;;;2.58;;
13981;SDS011;7065;50.880;5.502;2022-09-09T05:06:07;10.38;;;3.17;;
13981;SDS011;7065;50.880;5.502;2022-09-09T05:08:35;7.43;;;2.78;;
13981;SDS011;7065;50.880;5.502;2022-09-09T05:11:19;6.97;;;2.50;;
13981;SDS011;7065;50.880;5.502;2022-09-09T05:13:50;6.28;;;2.03;;
13981;SDS011;7065;50.880;5.502;2022-09-09T05:16:16;4.38;;;2.45;;
13981;SDS011;7065;50.880;5.502;2022-09-09T05:18:42;7.30;;;2.55;;
13981;SDS011;7065;50.880;5.502;2022-09-09T05:21:08;9.40;;;2.22;;
13981;SDS011;7065;50.880;5.502;2022-09-09T05:23:35;6.43;;;2.28;;
13981;SDS011;7065;50.880;5.502;2022-09-09T05:26:01;8.05;;;2.25;;
13981;SDS011;7065;50.880;5.502;2022-09-09T05:28:28;7.32;;;2.53;;
13981;SDS011;7065;50.880;5.502;2022-09-09T05:31:02;4.82;;;2.20;;
13981;SDS011;7065;50.880;5.502;2022-09-09T05:33:30;8.18;;;2.10;;
13981;SDS011;7065;50.880;5.502;2022-09-09T05:35:57;7.70;;;2.80;;
13981;SDS011;7065;50.880;5.502;2022-09-09T05:38:24;10.75;;;2.60;;
13981;SDS011;7065;50.880;5.502;2022-09-09T05:40:51;8.10;;;2.38;;
13981;SDS011;7065;50.880;5.502;2022-09-09T05:43:18;7.32;;;2.42;;
13981;SDS011;7065;50.880;5.502;2022-09-09T05:45:45;9.77;;;2.90;;
13981;SDS011;7065;50.880;5.502;2022-09-09T05:48:13;7.05;;;2.33;;
13981;SDS011;7065;50.880;5.502;2022-09-09T05:50:40;6.35;;;1.95;;
13981;SDS011;7065;50.880;5.502;2022-09-09T05:53:07;5.97;;;2.05;;
13981;SDS011;7065;50.880;5.502;2022-09-09T05:55:33;7.82;;;2.15;;
13981;SDS011;7065;50.880;5.502;2022-09-09T05:57:59;6.55;;;1.80;;
13981;SDS011;7065;50.880;5.502;2022-09-09T06:00:26;9.35;;;2.33;;
13981;SDS011;7065;50.880;5.502;2022-09-09T06:02:52;5.55;;;2.42;;
13981;SDS011;7065;50.880;5.502;2022-09-09T06:05:18;6.32;;;2.20;;
13981;SDS011;7065;50.880;5.502;2022-09-09T06:07:45;6.65;;;2.35;;
13981;SDS011;7065;50.880;5.502;2022-09-09T06:10:11;6.78;;;2.03;;
13981;SDS011;7065;50.880;5.502;2022-09-09T06:12:38;5.05;;;1.92;;
13981;SDS011;7065;50.880;5.502;2022-09-09T06:15:05;7.18;;;2.13;;
13981;SDS011;7065;50.880;5.502;2022-09-09T06:17:32;8.63;;;2.47;;
13981;SDS011;7065;50.880;5.502;2022-09-09T06:19:57;5.18;;;2.00;;
13981;SDS011;7065;50.880;5.502;2022-09-09T06:22:24;4.20;;;1.60;;
13981;SDS011;7065;50.880;5.502;2022-09-09T06:24:50;7.00;;;2.20;;
13981;SDS011;7065;50.880;5.502;2022-09-09T06:27:16;4.78;;;2.13;;
13981;SDS011;7065;50.880;5.502;2022-09-09T06:29:42;7.70;;;2.28;;
13981;SDS011;7065;50.880;5.502;2022-09-09T06:32:07;5.18;;;2.03;;
13981;SDS011;7065;50.880;5.502;2022-09-09T06:34:33;8.68;;;1.95;;
13981;SDS011;7065;50.880;5.502;2022-09-09T06:37:00;8.13;;;2.67;;
13981;SDS011;7065;50.880;5.502;2022-09-09T06:39:26;11.45;;;2.20;;
13981;SDS011;7065;50.880;5.502;2022-09-09T06:41:52;3.17;;;1.48;;
13981;SDS011;7065;50.880;5.502;2022-09-09T06:44:18;6.15;;;1.83;;
13981;SDS011;7065;50.880;5.502;2022-09-09T06:46:44;7.78;;;1.95;;
13981;SDS011;7065;50.880;5.502;2022-09-09T06:49:11;8.32;;;2.03;;
13981;SDS011;7065;50.880;5.502;2022-09-09T06:51:38;7.72;;;2.15;;
13981;SDS011;7065;50.880;5.502;2022-09-09T06:54:08;8.48;;;2.03;;
13981;SDS011;7065;50.880;5.502;2022-09-09T06:56:36;7.18;;;2.00;;
13981;SDS011;7065;50.880;5.502;2022-09-09T06:59:05;7.30;;;2.20;;
13981;SDS011;7065;50.880;5.502;2022-09-09T07:01:38;6.80;;;1.98;;
13981;SDS011;7065;50.880;5.502;2022-09-09T07:04:12;6.75;;;1.85;;
13981;SDS011;7065;50.880;5.502;2022-09-09T07:06:43;4.95;;;1.50;;
13981;SDS011;7065;50.880;5.502;2022-09-09T07:09:11;5.60;;;1.95;;
13981;SDS011;7065;50.880;5.502;2022-09-09T07:11:44;3.22;;;1.60;;
13981;SDS011;7065;50.880;5.502;2022-09-09T07:14:11;10.30;;;2.17;;
13981;SDS011;7065;50.880;5.502;2022-09-09T07:16:41;6.05;;;2.25;;
13981;SDS011;7065;50.880;5.502;2022-09-09T07:19:07;7.50;;;1.92;;
13981;SDS011;7065;50.880;5.502;2022-09-09T07:21:32;6.50;;;2.40;;
13981;SDS011;7065;50.880;5.502;2022-09-09T07:23:59;6.78;;;1.85;;
13981;SDS011;7065;50.880;5.502;2022-09-09T07:26:26;5.55;;;1.63;;
13981;SDS011;7065;50.880;5.502;2022-09-09T07:28:54;8.45;;;2.38;;
13981;SDS011;7065;50.880;5.502;2022-09-09T07:31:22;5.45;;;1.27;;
13981;SDS011;7065;50.880;5.502;2022-09-09T07:33:50;5.57;;;1.38;;
13981;SDS011;7065;50.880;5.502;2022-09-09T07:36:16;5.38;;;1.63;;
13981;SDS011;7065;50.880;5.502;2022-09-09T07:38:47;5.97;;;1.85;;
13981;SDS011;7065;50.880;5.502;2022-09-09T07:41:16;9.10;;;1.90;;
13981;SDS011;7065;50.880;5.502;2022-09-09T07:43:47;6.68;;;1.95;;
13981;SDS011;7065;50.880;5.502;2022-09-09T07:46:14;7.32;;;2.10;;
13981;SDS011;7065;50.880;5.502;2022-09-09T07:48:46;7.47;;;1.92;;
13981;SDS011;7065;50.880;5.502;2022-09-09T07:51:17;5.97;;;1.80;;
13981;SDS011;7065;50.880;5.502;2022-09-09T07:53:48;6.82;;;1.80;;
13981;SDS011;7065;50.880;5.502;2022-09-09T07:56:17;5.78;;;1.30;;
13981;SDS011;7065;50.880;5.502;2022-09-09T07:58:46;5.05;;;1.85;;
13981;SDS011;7065;50.880;5.502;2022-09-09T08:01:14;6.45;;;1.70;;
13981;SDS011;7065;50.880;5.502;2022-09-09T08:03:45;7.35;;;2.42;;
13981;SDS011;7065;50.880;5.502;2022-09-09T08:06:12;6.90;;;1.60;;
13981;SDS011;7065;50.880;5.502;2022-09-09T08:08:39;5.95;;;2.15;;
13981;SDS011;7065;50.880;5.502;2022-09-09T08:11:10;9.95;;;2.03;;
13981;SDS011;7065;50.880;5.502;2022-09-09T08:13:39;5.28;;;1.20;;
13981;SDS011;7065;50.880;5.502;2022-09-09T08:16:07;7.63;;;1.85;;
13981;SDS011;7065;50.880;5.502;2022-09-09T08:18:34;5.95;;;1.63;;
13981;SDS011;7065;50.880;5.502;2022-09-09T08:21:13;4.53;;;1.23;;
13981;SDS011;7065;50.880;5.502;2022-09-09T08:23:42;5.30;;;1.65;;
13981;SDS011;7065;50.880;5.502;2022-09-09T08:28:40;6.25;;;1.58;;
13981;SDS011;7065;50.880;5.502;2022-09-09T08:31:11;6.82;;;2.20;;
13981;SDS011;7065;50.880;5.502;2022-09-09T08:33:39;6.00;;;1.48;;
13981;SDS011;7065;50.880;5.502;2022-09-09T08:36:06;6.00;;;1.80;;
13981;SDS011;7065;50.880;5.502;2022-09-09T08:38:34;5.25;;;1.38;;
13981;SDS011;7065;50.880;5.502;2022-09-09T08:41:04;5.55;;;1.40;;
13981;SDS011;7065;50.880;5.502;2022-09-09T08:43:40;5.60;;;1.58;;
13981;SDS011;7065;50.880;5.502;2022-09-09T08:47:11;6.07;;;1.73;;
13981;SDS011;7065;50.880;5.502;2022-09-09T08:52:03;5.78;;;1.50;;
13981;SDS011;7065;50.880;5.502;2022-09-09T08:54:40;7.78;;;1.85;;
13981;SDS011;7065;50.880;5.502;2022-09-09T08:57:09;6.63;;;2.40;;
13981;SDS011;7065;50.880;5.502;2022-09-09T08:59:40;4.28;;;1.50;;
13981;SDS011;7065;50.880;5.502;2022-09-09T09:09:57;9.30;;;1.70;;
13981;SDS011;7065;50.880;5.502;2022-09-09T09:12:27;5.25;;;1.17;;
13981;SDS011;7065;50.880;5.502;2022-09-09T09:15:05;4.20;;;1.83;;
13981;SDS011;7065;50.880;5.502;2022-09-09T09:17:43;6.53;;;1.92;;
13981;SDS011;7065;50.880;5.502;2022-09-09T09:20:12;6.63;;;1.83;;
13981;SDS011;7065;50.880;5.502;2022-09-09T09:22:50;7.25;;;1.70;;
13981;SDS011;7065;50.880;5.502;2022-09-09T09:25:21;7.13;;;1.60;;
13981;SDS011;7065;50.880;5.502;2022-09-09T09:27:51;7.10;;;1.55;;
13981;SDS011;7065;50.880;5.502;2022-09-09T09:35:59;3.65;;;1.50;;
13981;SDS011;7065;50.880;5.502;2022-09-09T09:38:26;7.35;;;1.48;;
13981;SDS011;7065;50.880;5.502;2022-09-09T09:40:56;4.75;;;1.20;;
13981;SDS011;7065;50.880;5.502;2022-09-09T09:43:28;4.43;;;1.33;;
13981;SDS011;7065;50.880;5.502;2022-09-09T09:45:54;3.85;;;1.52;;
13981;SDS011;7065;50.880;5.502;2022-09-09T09:48:22;2.83;;;1.30;;
13981;SDS011;7065;50.880;5.502;2022-09-09T09:53:24;4.63;;;1.35;;
13981;SDS011;7065;50.880;5.502;2022-09-09T09:58:32;3.78;;;1.60;;
13981;SDS011;7065;50.880;5.502;2022-09-09T10:01:21;6.47;;;1.50;;
13981;SDS011;7065;50.880;5.502;2022-09-09T10:04:02;4.50;;;1.27;;
13981;SDS011;7065;50.880;5.502;2022-09-09T10:06:41;2.42;;;1.23;;
13981;SDS011;7065;50.880;5.502;2022-09-09T10:09:23;3.13;;;1.13;;
13981;SDS011;7065;50.880;5.502;2022-09-09T10:12:11;5.60;;;1.48;;
13981;SDS011;7065;50.880;5.502;2022-09-09T10:20:31;3.55;;;1.30;;
13981;SDS011;7065;50.880;5.502;2022-09-09T10:23:08;6.28;;;1.27;;
13981;SDS011;7065;50.880;5.502;2022-09-09T10:26:03;5.35;;;1.58;;
13981;SDS011;7065;50.880;5.502;2022-09-09T10:37:44;8.43;;;1.90;;
13981;SDS011;7065;50.880;5.502;2022-09-09T10:43:13;4.82;;;1.42;;
13981;SDS011;7065;50.880;5.502;2022-09-09T10:51:33;5.53;;;2.17;;
13981;SDS011;7065;50.880;5.502;2022-09-09T10:56:58;6.50;;;2.17;;
13981;SDS011;7065;50.880;5.502;2022-09-09T10:59:41;5.00;;;1.90;;
13981;SDS011;7065;50.880;5.502;2022-09-09T11:02:18;7.03;;;2.20;;
13981;SDS011;7065;50.880;5.502;2022-09-09T11:10:06;4.85;;;2.20;;
13981;SDS011;7065;50.880;5.502;2022-09-09T11:13:02;6.88;;;2.00;;
13981;SDS011;7065;50.880;5.502;2022-09-09T11:15:49;7.22;;;2.13;;
13981;SDS011;7065;50.880;5.502;2022-09-09T11:18:20;3.55;;;1.23;;
13981;SDS011;7065;50.880;5.502;2022-09-09T11:20:49;5.20;;;1.75;;
13981;SDS011;7065;50.880;5.502;2022-09-09T11:23:22;6.07;;;1.95;;
13981;SDS011;7065;50.880;5.502;2022-09-09T11:25:56;7.30;;;1.92;;
13981;SDS011;7065;50.880;5.502;2022-09-09T11:28:34;3.65;;;1.40;;
13981;SDS011;7065;50.880;5.502;2022-09-09T11:31:17;5.43;;;1.73;;
13981;SDS011;7065;50.880;5.502;2022-09-09T11:39:47;4.63;;;1.67;;
13981;SDS011;7065;50.880;5.502;2022-09-09T11:42:34;3.10;;;1.58;;
13981;SDS011;7065;50.880;5.502;2022-09-09T11:45:19;4.85;;;1.63;;
13981;SDS011;7065;50.880;5.502;2022-09-09T11:47:51;5.38;;;1.60;;
13981;SDS011;7065;50.880;5.502;2022-09-09T11:52:50;5.28;;;1.55;;
13981;SDS011;7065;50.880;5.502;2022-09-09T11:55:29;5.30;;;1.77;;
13981;SDS011;7065;50.880;5.502;2022-09-09T11:58:01;6.57;;;1.50;;
13981;SDS011;7065;50.880;5.502;2022-09-09T12:00:34;5.90;;;1.70;;
13981;SDS011;7065;50.880;5.502;2022-09-09T12:03:08;6.35;;;1.65;;
13981;SDS011;7065;50.880;5.502;2022-09-09T12:06:15;4.38;;;1.52;;
13981;SDS011;7065;50.880;5.502;2022-09-09T12:08:43;3.22;;;1.30;;
13981;SDS011;7065;50.880;5.502;2022-09-09T12:11:23;6.25;;;1.55;;
13981;SDS011;7065;50.880;5.502;2022-09-09T12:13:54;3.67;;;1.50;;
13981;SDS011;7065;50.880;5.502;2022-09-09T12:16:32;6.10;;;1.80;;
13981;SDS011;7065;50.880;5.502;2022-09-09T12:19:12;6.18;;;2.05;;
13981;SDS011;7065;50.880;5.502;2022-09-09T12:24:11;4.78;;;1.80;;
13981;SDS011;7065;50.880;5.502;2022-09-09T12:29:14;3.17;;;1.42;;
13981;SDS011;7065;50.880;5.502;2022-09-09T12:34:33;2.00;;;0.80;;
13981;SDS011;7065;50.880;5.502;2022-09-09T12:37:17;5.93;;;1.00;;
13981;SDS011;7065;50.880;5.502;2022-09-09T12:40:21;5.68;;;1.50;;
13981;SDS011;7065;50.880;5.502;2022-09-09T12:42:55;8.00;;;1.30;;
13981;SDS011;7065;50.880;5.502;2022-09-09T12:45:21;6.45;;;1.85;;
13981;SDS011;7065;50.880;5.502;2022-09-09T12:47:57;2.60;;;0.98;;
13981;SDS011;7065;50.880;5.502;2022-09-09T12:50:31;3.90;;;1.20;;
13981;SDS011;7065;50.880;5.502;2022-09-09T12:55:51;5.43;;;1.60;;
13981;SDS011;7065;50.880;5.502;2022-09-09T12:58:35;3.72;;;1.70;;
13981;SDS011;7065;50.880;5.502;2022-09-09T13:01:03;5.75;;;2.70;;
13981;SDS011;7065;50.880;5.502;2022-09-09T13:03:31;4.30;;;2.38;;
13981;SDS011;7065;50.880;5.502;2022-09-09T13:05:59;5.72;;;2.92;;
13981;SDS011;7065;50.880;5.502;2022-09-09T13:08:37;7.55;;;3.65;;
13981;SDS011;7065;50.880;5.502;2022-09-09T13:11:04;7.13;;;3.75;;
13981;SDS011;7065;50.880;5.502;2022-09-09T13:13:37;7.55;;;4.45;;
13981;SDS011;7065;50.880;5.502;2022-09-09T13:16:05;6.03;;;3.72;;
13981;SDS011;7065;50.880;5.502;2022-09-09T13:18:41;7.40;;;4.05;;
13981;SDS011;7065;50.880;5.502;2022-09-09T13:21:07;6.22;;;4.05;;
13981;SDS011;7065;50.880;5.502;2022-09-09T13:23:33;7.68;;;4.13;;
13981;SDS011;7065;50.880;5.502;2022-09-09T13:26:02;7.82;;;4.30;;
13981;SDS011;7065;50.880;5.502;2022-09-09T13:28:31;7.38;;;3.83;;
13981;SDS011;7065;50.880;5.502;2022-09-09T13:31:04;4.45;;;2.92;;
13981;SDS011;7065;50.880;5.502;2022-09-09T13:33:44;8.52;;;3.28;;
13981;SDS011;7065;50.880;5.502;2022-09-09T13:36:11;7.05;;;3.40;;
13981;SDS011;7065;50.880;5.502;2022-09-09T13:41:42;6.47;;;3.42;;
13981;SDS011;7065;50.880;5.502;2022-09-09T13:44:23;5.05;;;3.15;;
13981;SDS011;7065;50.880;5.502;2022-09-09T13:49:31;6.18;;;2.40;;
13981;SDS011;7065;50.880;5.502;2022-09-09T13:54:32;6.30;;;1.77;;
13981;SDS011;7065;50.880;5.502;2022-09-09T13:56:59;4.55;;;2.20;;
13981;SDS011;7065;50.880;5.502;2022-09-09T13:59:27;5.38;;;2.00;;
13981;SDS011;7065;50.880;5.502;2022-09-09T14:01:52;5.28;;;2.10;;
13981;SDS011;7065;50.880;5.502;2022-09-09T14:04:18;5.05;;;1.70;;
13981;SDS011;7065;50.880;5.502;2022-09-09T14:06:46;4.63;;;2.13;;
13981;SDS011;7065;50.880;5.502;2022-09-09T14:09:13;4.50;;;1.83;;
13981;SDS011;7065;50.880;5.502;2022-09-09T14:11:41;4.38;;;1.90;;
13981;SDS011;7065;50.880;5.502;2022-09-09T14:14:13;4.80;;;1.75;;
13981;SDS011;7065;50.880;5.502;2022-09-09T14:16:38;4.35;;;1.75;;
13981;SDS011;7065;50.880;5.502;2022-09-09T14:19:04;4.97;;;2.05;;
13981;SDS011;7065;50.880;5.502;2022-09-09T14:21:30;3.72;;;1.58;;
13981;SDS011;7065;50.880;5.502;2022-09-09T14:23:59;4.00;;;1.70;;
13981;SDS011;7065;50.880;5.502;2022-09-09T14:26:25;4.32;;;1.85;;
13981;SDS011;7065;50.880;5.502;2022-09-09T14:28:51;2.88;;;1.75;;
13981;SDS011;7065;50.880;5.502;2022-09-09T14:31:17;4.28;;;1.58;;
13981;SDS011;7065;50.880;5.502;2022-09-09T14:33:43;3.38;;;1.83;;
13981;SDS011;7065;50.880;5.502;2022-09-09T14:36:09;3.72;;;1.58;;
13981;SDS011;7065;50.880;5.502;2022-09-09T14:38:36;4.50;;;1.70;;
13981;SDS011;7065;50.880;5.502;2022-09-09T14:41:07;4.35;;;1.40;;
13981;SDS011;7065;50.880;5.502;2022-09-09T14:43:37;3.67;;;1.40;;
13981;SDS011;7065;50.880;5.502;2022-09-09T14:46:10;4.25;;;1.63;;
13981;SDS011;7065;50.880;5.502;2022-09-09T14:48:38;5.03;;;1.88;;
13981;SDS011;7065;50.880;5.502;2022-09-09T14:53:41;3.75;;;0.88;;
13981;SDS011;7065;50.880;5.502;2022-09-09T14:56:15;3.97;;;1.42;;
13981;SDS011;7065;50.880;5.502;2022-09-09T14:58:43;2.33;;;0.90;;
13981;SDS011;7065;50.880;5.502;2022-09-09T15:01:10;3.22;;;0.90;;
13981;SDS011;7065;50.880;5.502;2022-09-09T15:03:38;2.80;;;1.30;;
13981;SDS011;7065;50.880;5.502;2022-09-09T15:06:14;2.25;;;1.13;;
13981;SDS011;7065;50.880;5.502;2022-09-09T15:08:41;2.08;;;1.10;;
13981;SDS011;7065;50.880;5.502;2022-09-09T15:11:08;3.22;;;1.30;;
13981;SDS011;7065;50.880;5.502;2022-09-09T15:13:39;2.95;;;1.38;;
13981;SDS011;7065;50.880;5.502;2022-09-09T15:16:06;2.72;;;1.38;;
13981;SDS011;7065;50.880;5.502;2022-09-09T15:18:33;3.35;;;1.10;;
13981;SDS011;7065;50.880;5.502;2022-09-09T15:21:02;3.55;;;1.25;;
13981;SDS011;7065;50.880;5.502;2022-09-09T15:23:33;2.97;;;1.17;;
13981;SDS011;7065;50.880;5.502;2022-09-09T15:25:59;2.78;;;1.20;;
13981;SDS011;7065;50.880;5.502;2022-09-09T15:28:26;3.33;;;1.08;;
13981;SDS011;7065;50.880;5.502;2022-09-09T15:30:52;3.90;;;1.40;;
13981;SDS011;7065;50.880;5.502;2022-09-09T15:33:19;2.10;;;1.05;;
13981;SDS011;7065;50.880;5.502;2022-09-09T15:35:46;4.03;;;1.52;;
13981;SDS011;7065;50.880;5.502;2022-09-09T15:38:15;4.63;;;1.33;;
13981;SDS011;7065;50.880;5.502;2022-09-09T15:40:41;2.95;;;1.40;;
13981;SDS011;7065;50.880;5.502;2022-09-09T15:43:08;4.50;;;1.60;;
13981;SDS011;7065;50.880;5.502;2022-09-09T15:45:34;3.50;;;1.40;;
13981;SDS011;7065;50.880;5.502;2022-09-09T15:48:02;5.25;;;1.63;;
13981;SDS011;7065;50.880;5.502;2022-09-09T15:50:29;6.03;;;1.70;;
13981;SDS011;7065;50.880;5.502;2022-09-09T15:52:58;3.90;;;1.60;;
13981;SDS011;7065;50.880;5.502;2022-09-09T15:55:24;3.47;;;1.50;;
13981;SDS011;7065;50.880;5.502;2022-09-09T15:57:50;3.95;;;1.55;;
13981;SDS011;7065;50.880;5.502;2022-09-09T16:00:17;3.45;;;1.27;;
13981;SDS011;7065;50.880;5.502;2022-09-09T16:02:44;1.63;;;1.27;;
13981;SDS011;7065;50.880;5.502;2022-09-09T16:05:11;3.58;;;1.35;;
13981;SDS011;7065;50.880;5.502;2022-09-09T16:07:37;2.83;;;1.08;;
13981;SDS011;7065;50.880;5.502;2022-09-09T16:10:03;3.88;;;1.30;;
13981;SDS011;7065;50.880;5.502;2022-09-09T16:12:29;3.67;;;0.98;;
13981;SDS011;7065;50.880;5.502;2022-09-09T16:14:55;3.47;;;1.05;;
13981;SDS011;7065;50.880;5.502;2022-09-09T16:17:21;2.58;;;0.93;;
13981;SDS011;7065;50.880;5.502;2022-09-09T16:19:46;2.58;;;1.10;;
13981;SDS011;7065;50.880;5.502;2022-09-09T16:22:12;2.53;;;1.30;;
13981;SDS011;7065;50.880;5.502;2022-09-09T16:24:40;4.97;;;1.95;;
13981;SDS011;7065;50.880;5.502;2022-09-09T16:27:06;4.38;;;1.13;;
13981;SDS011;7065;50.880;5.502;2022-09-09T16:29:32;2.47;;;1.15;;
13981;SDS011;7065;50.880;5.502;2022-09-09T16:31:58;4.68;;;1.65;;
13981;SDS011;7065;50.880;5.502;2022-09-09T16:34:25;3.25;;;1.67;;
13981;SDS011;7065;50.880;5.502;2022-09-09T16:36:51;4.80;;;1.50;;
13981;SDS011;7065;50.880;5.502;2022-09-09T16:39:18;3.63;;;1.60;;
13981;SDS011;7065;50.880;5.502;2022-09-09T16:41:46;6.10;;;1.63;;
13981;SDS011;7065;50.880;5.502;2022-09-09T16:44:13;3.70;;;1.48;;
13981;SDS011;7065;50.880;5.502;2022-09-09T16:46:42;3.65;;;1.90;;
13981;SDS011;7065;50.880;5.502;2022-09-09T16:49:10;2.70;;;1.70;;
13981;SDS011;7065;50.880;5.502;2022-09-09T16:51:37;6.50;;;2.00;;
13981;SDS011;7065;50.880;5.502;2022-09-09T16:54:06;3.72;;;1.60;;
13981;SDS011;7065;50.880;5.502;2022-09-09T16:56:34;4.60;;;2.03;;
13981;SDS011;7065;50.880;5.502;2022-09-09T16:59:10;5.15;;;1.60;;
13981;SDS011;7065;50.880;5.502;2022-09-09T17:01:42;4.60;;;2.15;;
13981;SDS011;7065;50.880;5.502;2022-09-09T17:04:09;3.28;;;1.50;;
13981;SDS011;7065;50.880;5.502;2022-09-09T17:06:41;4.13;;;1.80;;
13981;SDS011;7065;50.880;5.502;2022-09-09T17:09:07;4.47;;;1.90;;
13981;SDS011;7065;50.880;5.502;2022-09-09T17:11:35;3.67;;;1.60;;
13981;SDS011;7065;50.880;5.502;2022-09-09T17:14:03;4.85;;;1.80;;
13981;SDS011;7065;50.880;5.502;2022-09-09T17:16:30;4.63;;;1.70;;
13981;SDS011;7065;50.880;5.502;2022-09-09T17:18:59;3.58;;;1.88;;
13981;SDS011;7065;50.880;5.502;2022-09-09T17:21:29;5.25;;;2.03;;
13981;SDS011;7065;50.880;5.502;2022-09-09T17:23:56;4.95;;;1.98;;
13981;SDS011;7065;50.880;5.502;2022-09-09T17:26:23;4.82;;;1.70;;
13981;SDS011;7065;50.880;5.502;2022-09-09T17:28:54;2.35;;;1.45;;
13981;SDS011;7065;50.880;5.502;2022-09-09T17:31:23;2.78;;;1.45;;
13981;SDS011;7065;50.880;5.502;2022-09-09T17:33:51;4.72;;;1.80;;